createdAt,value
2023-12-10T00:02:00.540Z,-5.78
2023-12-10T00:07:03.365Z,-5.74
2023-12-10T00:12:06.395Z,-5.67
2023-12-10T00:17:09.150Z,-5.59
2023-12-10T00:22:11.851Z,-5.62
2023-12-10T00:27:14.521Z,-5.78
2023-12-10T00:32:17.228Z,-5.85
2023-12-10T00:37:19.875Z,-5.84
2023-12-10T00:42:22.562Z,-5.60
2023-12-10T00:47:25.374Z,-5.70
2023-12-10T00:52:28.184Z,-5.61
2023-12-10T00:57:31.020Z,-5.60
2023-12-10T01:02:33.749Z,-5.56
2023-12-10T01:07:36.549Z,-5.73
2023-12-10T01:12:40.183Z,-5.87
2023-12-10T01:17:42.951Z,-5.83
2023-12-10T01:22:45.659Z,-5.70
2023-12-10T01:27:48.444Z,-5.83
2023-12-10T01:32:56.933Z,-5.60
2023-12-10T01:38:00.650Z,-5.69
2023-12-10T01:43:07.856Z,-5.27
2023-12-10T01:48:10.912Z,-5.52
2023-12-10T01:53:14.709Z,-5.13
2023-12-10T01:58:17.729Z,-5.42
2023-12-10T02:03:20.580Z,-5.88
2023-12-10T02:08:23.848Z,-6.03
2023-12-10T02:13:27.322Z,-5.96
2023-12-10T02:18:30.290Z,-5.93
2023-12-10T02:23:59.721Z,-5.93
2023-12-10T02:29:03.359Z,-5.99
2023-12-10T02:34:06.148Z,-6.14
2023-12-10T02:39:12.263Z,-6.14
2023-12-10T02:44:15.058Z,-5.95
2023-12-10T02:49:17.913Z,-6.01
2023-12-10T02:54:20.748Z,-6.16
2023-12-10T02:59:23.535Z,-6.19
2023-12-10T03:04:26.228Z,-6.27
2023-12-10T03:09:28.963Z,-6.25
2023-12-10T03:14:32.543Z,-6.40
2023-12-10T03:19:35.417Z,-6.51
2023-12-10T03:24:38.199Z,-6.43
2023-12-10T03:29:40.927Z,-6.30
2023-12-10T03:34:43.734Z,-6.33
2023-12-10T03:39:46.613Z,-6.35
2023-12-10T03:44:49.711Z,-6.36
2023-12-10T03:49:52.538Z,-6.44
2023-12-10T03:54:55.338Z,-6.29
2023-12-10T03:59:58.013Z,-6.39
2023-12-10T04:05:00.757Z,-6.22
2023-12-10T04:10:03.722Z,-6.15
2023-12-10T04:15:07.488Z,-6.05
2023-12-10T04:20:10.909Z,-6.26
2023-12-10T04:25:13.664Z,-6.15
2023-12-10T04:30:16.601Z,-6.21
2023-12-10T04:35:19.573Z,-6.29
2023-12-10T04:40:23.277Z,-6.13
2023-12-10T04:45:26.126Z,-5.99
2023-12-10T04:50:28.827Z,-6.04
2023-12-10T04:55:31.478Z,-5.95
2023-12-10T05:00:34.370Z,-5.95
2023-12-10T05:05:37.282Z,-6.09
2023-12-10T05:10:40.086Z,-6.15
2023-12-10T05:15:42.834Z,-6.00
2023-12-10T05:20:46.039Z,-5.88
2023-12-10T05:25:48.802Z,-5.60
2023-12-10T05:30:51.614Z,-5.56
2023-12-10T05:35:54.380Z,-5.38
2023-12-10T05:40:57.109Z,-5.87
2023-12-10T05:45:59.892Z,-5.95
2023-12-10T05:51:04.873Z,-5.82
2023-12-10T05:56:08.703Z,-5.73
2023-12-10T06:01:11.580Z,-5.59
2023-12-10T06:06:14.519Z,-5.67
2023-12-10T06:11:17.293Z,-5.80
2023-12-10T06:16:20.092Z,-5.60
2023-12-10T06:21:23.051Z,-5.41
2023-12-10T06:26:25.792Z,-5.49
2023-12-10T06:31:28.557Z,-3.61
2023-12-10T06:36:31.332Z,-1.71
2023-12-10T06:41:34.117Z,-1.11
2023-12-10T06:46:38.795Z,-0.97
2023-12-10T06:51:41.718Z,-0.81
2023-12-10T06:56:44.563Z,-1.82
2023-12-10T07:01:47.326Z,-2.25
2023-12-10T07:06:50.149Z,-1.50
2023-12-10T07:11:52.941Z,-0.69
2023-12-10T07:16:55.642Z,-1.07
2023-12-10T07:21:58.804Z,-1.54
2023-12-10T07:27:03.192Z,-1.85
2023-12-10T07:32:06.143Z,-1.50
2023-12-10T07:37:08.895Z,-2.42
2023-12-10T07:42:11.586Z,-2.94
2023-12-10T07:47:14.292Z,-2.91
2023-12-10T07:52:17.086Z,-1.65
2023-12-10T07:57:19.832Z,-0.93
2023-12-10T08:02:22.596Z,-0.21
2023-12-10T08:07:25.339Z,-0.69
2023-12-10T08:12:28.649Z,-1.76
2023-12-10T08:17:31.674Z,-2.00
2023-12-10T08:22:34.446Z,-1.78
2023-12-10T08:27:37.511Z,-1.91
2023-12-10T08:32:40.874Z,-1.54
2023-12-10T08:37:43.929Z,-1.53
2023-12-10T08:42:48.400Z,-1.57
2023-12-10T08:47:51.271Z,-1.81
2023-12-10T08:52:54.072Z,-1.66
2023-12-10T08:57:56.807Z,-2.07
2023-12-10T09:02:59.534Z,-2.21
2023-12-10T09:08:03.045Z,-2.08
2023-12-10T09:13:05.886Z,-1.63
2023-12-10T09:18:09.068Z,-1.15
2023-12-10T09:23:14.536Z,-0.87
2023-12-10T09:28:17.446Z,-1.34
2023-12-10T09:33:20.398Z,-1.83
2023-12-10T09:38:23.283Z,-1.70
2023-12-10T09:43:26.230Z,-2.06
2023-12-10T09:48:29.771Z,-1.59
2023-12-10T09:53:32.663Z,-1.92
2023-12-10T09:58:35.494Z,-2.26
2023-12-10T10:03:38.929Z,-1.97
2023-12-10T10:08:41.902Z,-1.76
2023-12-10T10:13:54.967Z,-1.65
2023-12-10T10:18:57.834Z,-1.74
2023-12-10T10:24:00.544Z,-1.52
2023-12-10T10:29:07.609Z,-1.08
2023-12-10T10:34:10.847Z,-0.90
2023-12-10T10:39:13.927Z,-0.88
2023-12-10T10:44:16.717Z,-0.83
2023-12-10T10:49:19.988Z,-0.74
2023-12-10T10:54:24.094Z,-0.60
2023-12-10T10:59:33.312Z,-1.04
2023-12-10T11:04:42.949Z,-1.52
2023-12-10T11:09:57.447Z,-1.74
2023-12-10T11:15:00.156Z,-1.35
2023-12-10T11:20:04.512Z,-1.34
2023-12-10T11:25:07.716Z,-1.36
2023-12-10T11:30:11.170Z,-1.79
2023-12-10T11:35:15.666Z,-2.01
2023-12-10T11:40:18.380Z,-1.69
2023-12-10T11:45:21.433Z,-1.57
2023-12-10T11:50:24.393Z,-2.02
2023-12-10T11:55:28.144Z,-1.91
2023-12-10T12:00:34.211Z,-1.69
2023-12-10T12:05:37.135Z,-1.68
2023-12-10T12:10:40.552Z,-1.74
2023-12-10T12:15:47.211Z,-2.07
2023-12-10T12:20:49.972Z,-2.28
2023-12-10T12:25:52.792Z,-2.29
2023-12-10T12:30:55.563Z,-2.50
2023-12-10T12:35:58.453Z,-2.46
2023-12-10T12:41:01.257Z,-2.63
2023-12-10T12:46:04.270Z,-2.74
2023-12-10T12:51:07.309Z,-2.99
2023-12-10T12:56:10.178Z,-2.97
2023-12-10T13:01:12.989Z,-3.01
2023-12-10T13:06:18.863Z,-3.12
2023-12-10T13:11:21.717Z,-3.14
2023-12-10T13:16:24.477Z,-3.23
2023-12-10T13:21:27.253Z,-3.15
2023-12-10T13:26:31.245Z,-3.12
2023-12-10T13:31:33.971Z,-3.11
2023-12-10T13:36:36.842Z,-3.32
2023-12-10T13:41:40.353Z,-3.43
2023-12-10T13:46:43.009Z,-3.30
2023-12-10T13:51:45.914Z,-3.38
2023-12-10T13:56:50.981Z,-3.47
2023-12-10T14:01:54.344Z,-3.52
2023-12-10T14:06:57.269Z,-3.44
2023-12-10T14:12:00.762Z,-3.19
2023-12-10T14:17:03.610Z,-3.36
2023-12-10T14:22:06.444Z,-3.32
2023-12-10T14:27:09.960Z,-3.25
2023-12-10T14:32:13.302Z,-3.27
2023-12-10T14:37:16.009Z,-3.39
2023-12-10T14:42:18.757Z,-3.45
2023-12-10T14:47:21.596Z,-3.33
2023-12-10T14:52:25.243Z,-3.43
2023-12-10T14:57:28.477Z,-3.49
2023-12-10T15:02:31.411Z,-3.60
2023-12-10T15:07:34.794Z,-3.69
2023-12-10T15:12:37.567Z,-3.73
2023-12-10T15:17:42.057Z,-3.84
2023-12-10T15:22:45.861Z,-3.88
2023-12-10T15:27:48.599Z,-3.85
2023-12-10T15:32:51.395Z,-4.08
2023-12-10T15:37:54.132Z,-3.58
2023-12-10T15:42:56.919Z,-3.78
2023-12-10T15:47:59.852Z,-3.85
2023-12-10T15:53:02.761Z,-3.80
2023-12-10T15:58:05.668Z,-3.90
2023-12-10T16:03:08.933Z,-4.15
2023-12-10T16:08:11.727Z,-4.06
2023-12-10T16:13:19.289Z,-4.20
2023-12-10T16:18:24.689Z,-4.26
2023-12-10T16:23:27.477Z,-4.31
2023-12-10T16:28:30.222Z,-4.29
2023-12-10T16:33:33.308Z,-4.45
2023-12-10T16:38:36.372Z,-4.37
2023-12-10T16:43:41.150Z,-4.34
2023-12-10T16:48:46.384Z,-4.24
2023-12-10T16:53:49.496Z,-4.15
2023-12-10T16:58:52.705Z,-4.39
2023-12-10T17:03:55.556Z,-4.46
2023-12-10T17:08:58.646Z,-4.40
2023-12-10T17:14:01.519Z,-4.29
2023-12-10T17:19:04.429Z,-4.42
2023-12-10T17:24:07.222Z,-4.46
2023-12-10T17:29:10.001Z,-4.47
2023-12-10T17:34:13.709Z,-4.41
2023-12-10T17:39:17.999Z,-4.36
2023-12-10T17:44:21.360Z,-4.35
2023-12-10T17:49:24.365Z,-4.35
2023-12-10T17:54:27.166Z,-4.31
2023-12-10T17:59:30.046Z,-4.48
2023-12-10T18:04:33.131Z,-4.60
2023-12-10T18:09:35.977Z,-4.63
2023-12-10T18:14:39.017Z,-4.47
2023-12-10T18:19:43.332Z,-4.50
2023-12-10T18:24:46.137Z,-4.50
2023-12-10T18:29:48.992Z,-4.58
2023-12-10T18:34:51.735Z,-4.56
2023-12-10T18:39:54.533Z,-4.57
2023-12-10T18:44:57.226Z,-4.65
2023-12-10T18:50:00.190Z,-4.69
2023-12-10T18:55:03.292Z,-4.80
2023-12-10T19:00:08.117Z,-4.65
2023-12-10T19:05:10.927Z,-4.61
2023-12-10T19:10:13.908Z,-4.60
2023-12-10T19:15:16.624Z,-4.67
2023-12-10T19:20:24.624Z,-4.57
2023-12-10T19:25:27.700Z,-4.54
2023-12-10T19:30:30.560Z,-4.35
2023-12-10T19:35:33.274Z,-4.35
2023-12-10T19:40:36.104Z,-4.49
2023-12-10T19:45:38.839Z,-4.54
2023-12-10T19:50:41.577Z,-4.41
2023-12-10T19:55:44.674Z,-4.46
2023-12-10T20:00:48.392Z,-4.34
2023-12-10T20:05:51.671Z,-4.46
2023-12-10T20:10:57.152Z,-4.62
2023-12-10T20:15:59.931Z,-4.59
2023-12-10T20:21:02.630Z,-4.53
2023-12-10T20:26:05.679Z,-4.73
2023-12-10T20:31:08.939Z,-4.86
2023-12-10T20:36:11.836Z,-4.87
2023-12-10T20:41:14.588Z,-4.80
2023-12-10T20:46:17.411Z,-4.92
2023-12-10T20:51:24.148Z,-4.90
2023-12-10T20:56:27.256Z,-4.85
2023-12-10T21:01:37.196Z,-4.79
2023-12-10T21:07:06.662Z,-4.71
2023-12-10T21:12:09.632Z,-4.68
2023-12-10T21:17:15.896Z,-4.75
2023-12-10T21:22:19.940Z,-4.85
2023-12-10T21:27:22.630Z,-4.95
2023-12-10T21:32:25.625Z,-4.74
2023-12-10T21:37:28.849Z,-4.90
2023-12-10T21:42:31.728Z,-4.70
2023-12-10T21:47:34.448Z,-4.62
2023-12-10T21:52:37.197Z,-4.85
2023-12-10T21:57:40.000Z,-4.85
2023-12-10T22:02:42.837Z,-4.84
2023-12-10T22:07:45.557Z,-4.99
2023-12-10T22:12:48.441Z,-4.84
2023-12-10T22:17:51.212Z,-4.86
2023-12-10T22:22:53.920Z,-4.84
2023-12-10T22:27:56.640Z,-4.81
2023-12-10T22:32:59.380Z,-5.07
2023-12-10T22:38:02.210Z,-5.03
2023-12-10T22:43:05.074Z,-5.12
2023-12-10T22:48:07.878Z,-4.98
2023-12-10T22:53:10.612Z,-5.12
2023-12-10T22:58:13.358Z,-5.25
2023-12-10T23:03:16.106Z,-5.23
2023-12-10T23:08:21.794Z,-5.24
2023-12-10T23:13:24.562Z,-5.24
2023-12-10T23:18:35.710Z,-5.33
2023-12-10T23:23:40.879Z,-5.29
2023-12-10T23:28:47.469Z,-5.26
2023-12-10T23:34:06.352Z,-5.40
2023-12-10T23:39:09.128Z,-5.30
2023-12-10T23:44:11.876Z,-5.39
2023-12-10T23:49:14.712Z,-5.27
2023-12-10T23:54:36.723Z,-5.46
2023-12-10T23:59:39.572Z,-5.62
